Time;durP1;ratioP1;P1;durP2;ratioP2;P2;SDS_P1;SDS_P2;PMS_P1;PMS_P2;Temp;Humidity;BMP_temperature;BMP_pressure;BME280_temperature;BME280_humidity;BME280_pressure;Samples;Min_cycle;Max_cycle;Signal;HPM_P1;HPM_P2
2022/11/23 00:00:04;;;;;;;3.03;2.10;;;;;;;10.92;58.53;99154.56;693496;28;1780;-87
2022/11/23 00:00:25;;;;;;;3.20;1.90;;;;;;;10.94;58.27;99160.66;691557;28;1226;-86
2022/11/23 00:00:46;;;;;;;3.80;2.05;;;;;;;10.90;58.46;99161.53;695758;28;1892;-86
2022/11/23 00:01:24;;;;;;;4.78;2.20;;;;;;;10.86;58.48;99144.13;688166;28;1189;-86
2022/11/23 00:01:45;;;;;;;4.20;2.20;;;;;;;10.78;58.28;99132.81;693372;28;932;-85
2022/11/23 00:02:05;;;;;;;4.57;2.00;;;;;;;10.87;58.59;99153.69;695143;28;1324;-86
2022/11/23 00:02:26;;;;;;;4.73;2.00;;;;;;;10.86;58.57;99164.16;690490;28;1261;-85
2022/11/23 00:02:51;;;;;;;5.40;2.10;;;;;;;10.82;58.71;99152.84;696577;28;1128;-85
2022/11/23 00:03:14;;;;;;;4.53;2.00;;;;;;;10.88;58.59;99158.03;696934;28;1271;-86
2022/11/23 00:03:35;;;;;;;3.60;1.90;;;;;;;10.82;58.56;99153.69;693424;28;1657;-86
2022/11/23 00:04:11;;;;;;;2.93;1.90;;;;;;;10.76;58.35;99137.16;688443;28;1044;-85
2022/11/23 00:04:31;;;;;;;2.50;1.80;;;;;;;10.62;58.91;99156.28;693469;28;1333;-85
2022/11/23 00:04:52;;;;;;;2.30;1.90;;;;;;;10.77;59.07;99152.84;686350;28;1520;-86
2022/11/23 00:05:12;;;;;;;3.60;1.90;;;;;;;10.70;58.73;99143.25;691513;28;1134;-85
2022/11/23 00:05:33;;;;;;;3.42;1.80;;;;;;;10.75;58.86;99145.88;685300;28;1175;-86
2022/11/23 00:05:53;;;;;;;3.83;1.80;;;;;;;10.77;58.78;99163.28;685731;28;768;-85
2022/11/23 00:06:15;;;;;;;3.07;2.00;;;;;;;10.79;58.89;99147.59;691428;28;1890;-85
2022/11/23 00:06:36;;;;;;;4.10;2.20;;;;;;;10.74;58.62;99138.91;690754;28;1800;-86
2022/11/23 00:06:56;;;;;;;3.80;2.15;;;;;;;10.80;58.70;99147.59;682902;29;812;-86
2022/11/23 00:07:17;;;;;;;4.87;2.43;;;;;;;10.74;58.71;99142.38;692122;28;1649;-86
2022/11/23 00:07:37;;;;;;;4.25;2.30;;;;;;;10.73;58.77;99164.13;689346;28;1317;-85
2022/11/23 00:07:58;;;;;;;4.30;2.30;;;;;;;10.54;59.12;99150.16;688248;28;932;-85
2022/11/23 00:08:19;;;;;;;3.20;2.10;;;;;;;10.50;59.32;99148.44;687366;28;1190;-85
2022/11/23 00:08:40;;;;;;;3.30;2.13;;;;;;;10.68;59.21;99166.72;685555;28;1009;-85
2022/11/23 00:09:00;;;;;;;3.10;1.95;;;;;;;10.72;59.16;99167.59;685781;28;1031;-86
2022/11/23 00:09:21;;;;;;;2.40;1.80;;;;;;;10.66;59.02;99136.28;692610;28;1161;-84
2022/11/23 00:09:42;;;;;;;3.27;2.00;;;;;;;10.67;59.00;99149.34;694558;28;1478;-86
2022/11/23 00:10:02;;;;;;;3.67;2.10;;;;;;;10.74;58.79;99152.81;693546;28;1105;-86
2022/11/23 00:10:23;;;;;;;4.13;2.00;;;;;;;10.76;58.54;99152.81;691014;28;1150;-86
2022/11/23 00:10:44;;;;;;;4.43;1.93;;;;;;;10.75;58.69;99136.28;690754;28;1396;-86
2022/11/23 00:11:05;;;;;;;5.33;2.40;;;;;;;10.69;58.84;99158.03;690721;28;1281;-85
2022/11/23 00:11:26;;;;;;;5.40;2.53;;;;;;;10.63;59.02;99158.00;690964;28;1252;-85
2022/11/23 00:11:47;;;;;;;4.30;2.22;;;;;;;10.69;59.40;99163.25;691059;28;1410;-84
2022/11/23 00:12:08;;;;;;;4.03;2.00;;;;;;;10.71;58.89;99167.59;690758;28;1949;-86
2022/11/23 00:12:28;;;;;;;5.20;2.30;;;;;;;10.59;59.19;99153.66;688289;28;1204;-85
2022/11/23 00:12:49;;;;;;;5.63;2.50;;;;;;;10.71;59.18;99175.41;693594;28;871;-86
2022/11/23 00:13:09;;;;;;;3.67;2.33;;;;;;;10.74;58.70;99158.03;690605;28;1177;-85
2022/11/23 00:13:30;;;;;;;3.63;1.90;;;;;;;10.87;58.54;99171.97;690614;28;1479;-86
2022/11/23 00:13:52;;;;;;;2.72;1.67;;;;;;;11.01;58.56;99166.78;691080;28;1057;-86
2022/11/23 00:14:12;;;;;;;3.13;1.80;;;;;;;11.02;58.11;99159.78;682597;29;1075;-85
2022/11/23 00:14:33;;;;;;;3.10;2.00;;;;;;;10.87;58.38;99151.06;687787;28;1527;-85
2022/11/23 00:14:53;;;;;;;3.55;1.98;;;;;;;10.90;58.14;99156.31;688669;28;1578;-86
2022/11/23 00:15:15;;;;;;;3.78;1.90;;;;;;;10.86;58.36;99146.72;690696;28;1136;-85
2022/11/23 00:15:35;;;;;;;3.60;1.70;;;;;;;10.92;58.38;99158.91;685528;28;1100;-85
2022/11/23 00:15:56;;;;;;;4.05;1.77;;;;;;;11.04;58.24;99155.44;691010;28;1173;-86
2022/11/23 00:16:22;;;;;;;3.83;1.77;;;;;;;11.10;57.87;99165.88;696255;28;1137;-85
2022/11/23 00:16:43;;;;;;;3.45;1.80;;;;;;;11.04;57.97;99156.31;693525;28;1918;-86
2022/11/23 00:17:03;;;;;;;4.23;1.90;;;;;;;11.06;58.03;99161.56;685207;28;1207;-86
2022/11/23 00:17:24;;;;;;;4.72;2.00;;;;;;;11.06;57.98;99151.97;685268;28;1872;-86
2022/11/23 00:17:47;;;;;;;4.80;2.30;;;;;;;11.09;57.76;99167.63;691206;28;1126;-86
2022/11/23 00:18:07;;;;;;;5.95;2.40;;;;;;;11.04;57.90;99148.50;690736;28;1195;-86
2022/11/23 00:18:28;;;;;;;6.07;2.33;;;;;;;11.11;57.67;99165.00;690790;28;1361;-85
2022/11/23 00:18:51;;;;;;;5.20;2.00;;;;;;;11.04;57.59;99158.03;688156;28;879;-85
2022/11/23 00:19:12;;;;;;;4.43;2.00;;;;;;;11.07;57.85;99158.91;690729;28;1343;-85
2022/11/23 00:19:32;;;;;;;5.45;2.00;;;;;;;11.06;57.62;99159.78;690700;28;1570;-86
2022/11/23 00:19:53;;;;;;;5.10;2.13;;;;;;;11.06;57.89;99151.09;690931;28;1180;-85
2022/11/23 00:20:14;;;;;;;3.70;2.10;;;;;;;11.12;57.92;99166.75;687972;28;1207;-85
2022/11/23 00:20:38;;;;;;;2.35;2.10;;;;;;;11.13;58.06;99163.28;688296;28;885;-85
2022/11/23 00:20:59;;;;;;;2.20;1.77;;;;;;;11.14;57.88;99153.69;685524;28;1364;-85
2022/11/23 00:21:21;;;;;;;2.75;1.92;;;;;;;11.00;57.88;99151.09;690856;28;1154;-85
2022/11/23 00:21:41;;;;;;;2.50;1.92;;;;;;;11.05;57.77;99149.38;688214;28;1106;-85
2022/11/23 00:22:02;;;;;;;3.30;2.00;;;;;;;11.16;57.72;99163.28;688237;28;1014;-85
2022/11/23 00:22:22;;;;;;;3.57;1.70;;;;;;;11.07;57.99;99152.84;684418;28;1628;-83
2022/11/23 00:22:43;;;;;;;5.32;1.80;;;;;;;11.05;58.08;99139.78;688039;28;1460;-85
2022/11/23 00:23:03;;;;;;;5.17;1.80;;;;;;;11.03;57.97;99156.31;693617;28;1129;-85
2022/11/23 00:23:24;;;;;;;5.10;1.80;;;;;;;11.06;58.03;99154.56;692907;28;1127;-85
2022/11/23 00:23:45;;;;;;;6.00;1.80;;;;;;;10.93;58.26;99145.00;689712;28;783;-86
2022/11/23 00:24:06;;;;;;;5.90;1.90;;;;;;;10.85;58.53;99152.81;691017;28;1254;-85
2022/11/23 00:24:54;;;;;;;5.18;2.20;;;;;;;11.00;58.49;99167.63;691042;28;1368;-86
2022/11/23 00:25:15;;;;;;;3.78;2.03;;;;;;;10.95;58.28;99151.94;692972;28;1467;-85
2022/11/23 00:25:36;;;;;;;4.20;2.10;;;;;;;11.02;58.27;99152.84;691704;28;1353;-85
2022/11/23 00:25:56;;;;;;;4.80;2.60;;;;;;;10.95;58.38;99151.94;695755;28;1026;-86
2022/11/23 00:26:18;;;;;;;5.10;2.50;;;;;;;11.09;58.40;99164.16;689350;28;1224;-85
2022/11/23 00:26:38;;;;;;;4.57;2.45;;;;;;;11.06;58.02;99165.00;690412;28;1819;-85
2022/11/23 00:26:59;;;;;;;3.50;1.77;;;;;;;11.02;58.39;99150.25;690861;28;1281;-85
2022/11/23 00:27:20;;;;;;;5.43;1.90;;;;;;;11.12;58.11;99166.75;693474;28;1262;-86
2022/11/23 00:27:40;;;;;;;6.95;2.20;;;;;;;11.10;58.09;99163.28;695474;28;1308;-86
2022/11/23 00:28:01;;;;;;;7.82;2.40;;;;;;;11.09;57.77;99151.09;696400;28;1020;-86
2022/11/23 00:28:21;;;;;;;6.70;2.40;;;;;;;11.13;57.75;99162.41;689128;28;1247;-86
2022/11/23 00:28:42;;;;;;;5.72;2.10;;;;;;;11.10;57.83;99148.50;688743;28;1813;-86
2022/11/23 00:29:03;;;;;;;6.00;2.00;;;;;;;11.13;57.66;99154.56;695924;28;1211;-85
2022/11/23 00:29:23;;;;;;;5.80;2.03;;;;;;;11.17;57.77;99167.63;690747;28;1261;-84
2022/11/23 00:29:44;;;;;;;5.07;2.10;;;;;;;11.14;57.93;99159.81;693275;28;1213;-86
2022/11/23 00:30:05;;;;;;;4.82;2.17;;;;;;;11.10;57.89;99158.06;690767;28;1098;-85
2022/11/23 00:30:27;;;;;;;3.67;2.00;;;;;;;11.10;57.62;99158.06;688430;28;1293;-85
2022/11/23 00:30:49;;;;;;;6.13;2.00;;;;;;;11.15;57.77;99161.53;685955;28;1447;-85
2022/11/23 00:31:13;;;;;;;5.40;1.80;;;;;;;11.08;57.76;99145.00;690917;28;1198;-86
2022/11/23 00:31:34;;;;;;;4.40;1.70;;;;;;;11.18;57.50;99161.53;688166;28;1489;-85
2022/11/23 00:31:54;;;;;;;3.42;1.75;;;;;;;11.14;57.81;99154.59;688296;28;1190;-85
2022/11/23 00:32:15;;;;;;;3.05;1.90;;;;;;;11.17;57.80;99170.25;697101;28;1300;-85
2022/11/23 00:32:36;;;;;;;3.33;2.00;;;;;;;11.11;57.74;99149.34;693596;28;997;-85
2022/11/23 00:32:56;;;;;;;3.30;1.90;;;;;;;11.15;57.92;99166.75;691046;28;916;-85
2022/11/23 00:33:17;;;;;;;3.40;1.80;;;;;;;11.09;57.83;99157.19;694527;28;1081;-84
2022/11/23 00:33:38;;;;;;;4.40;2.00;;;;;;;11.00;57.77;99145.88;689268;28;1318;-84
2022/11/23 00:33:59;;;;;;;4.93;2.15;;;;;;;11.07;57.82;99147.63;690777;28;1012;-86
2022/11/23 00:34:20;;;;;;;4.32;2.22;;;;;;;11.15;57.68;99160.66;696037;28;1386;-86
2022/11/23 00:34:40;;;;;;;3.77;2.20;;;;;;;11.10;57.93;99153.72;690757;28;1623;-85
2022/11/23 00:35:01;;;;;;;3.60;2.17;;;;;;;11.14;57.62;99158.91;688015;28;1184;-86
2022/11/23 00:35:22;;;;;;;5.32;2.08;;;;;;;11.03;57.96;99156.31;686217;28;1158;-86
2022/11/23 00:35:43;;;;;;;5.00;2.00;;;;;;;10.96;58.23;99155.44;685309;28;1318;-85
2022/11/23 00:36:06;;;;;;;4.53;2.03;;;;;;;10.99;58.21;99167.63;685258;28;1013;-85
2022/11/23 00:36:27;;;;;;;3.55;1.90;;;;;;;11.11;57.89;99170.22;685206;28;1337;-85
2022/11/23 00:36:50;;;;;;;3.15;2.00;;;;;;;11.02;58.03;99165.00;688397;28;1916;-82
2022/11/23 00:37:10;;;;;;;4.07;2.00;;;;;;;10.88;58.27;99160.66;690728;28;1142;-84
2022/11/23 00:37:31;;;;;;;4.57;2.00;;;;;;;10.83;58.24;99149.34;687240;28;1158;-84
2022/11/23 00:37:51;;;;;;;4.50;1.90;;;;;;;10.80;58.52;99159.78;690705;28;1959;-81
2022/11/23 00:38:12;;;;;;;3.67;1.80;;;;;;;10.72;58.64;99177.16;690040;28;1194;-85
2022/11/23 00:38:34;;;;;;;3.63;2.00;;;;;;;10.71;58.90;99158.03;690374;28;1432;-86
2022/11/23 00:38:56;;;;;;;3.92;2.00;;;;;;;10.68;58.95;99156.28;685344;28;1195;-85
2022/11/23 00:39:17;;;;;;;6.25;2.00;;;;;;;10.73;58.86;99161.50;684019;28;1166;-85
2022/11/23 00:39:37;;;;;;;6.70;1.90;;;;;;;10.76;58.89;99176.31;688960;28;1744;-86
2022/11/23 00:39:58;;;;;;;7.38;2.00;;;;;;;10.73;59.00;99155.41;693338;28;1178;-86
2022/11/23 00:40:18;;;;;;;4.53;1.98;;;;;;;10.73;58.86;99163.22;691799;28;1169;-85
2022/11/23 00:40:39;;;;;;;4.50;2.00;;;;;;;10.73;59.08;99155.41;693548;28;1459;-86
2022/11/23 00:41:05;;;;;;;3.85;1.90;;;;;;;10.79;58.87;99147.59;690845;28;1148;-86
2022/11/23 00:41:26;;;;;;;4.60;1.90;;;;;;;10.75;58.84;99153.69;695853;28;1280;-85
2022/11/23 00:41:47;;;;;;;3.60;1.70;;;;;;;10.69;58.99;99152.81;684945;28;1262;-84
2022/11/23 00:42:07;;;;;;;5.50;1.70;;;;;;;10.78;58.97;99164.13;685199;28;1098;-85
2022/11/23 00:42:29;;;;;;;5.03;1.65;;;;;;;10.75;58.73;99162.38;688177;28;943;-86
2022/11/23 00:42:49;;;;;;;5.97;1.90;;;;;;;10.77;58.89;99157.16;689352;28;1498;-85
2022/11/23 00:43:10;;;;;;;4.33;2.00;;;;;;;10.73;58.82;99158.00;685907;28;1194;-86
2022/11/23 00:43:36;;;;;;;4.47;2.00;;;;;;;10.82;58.82;99169.34;690503;28;1270;-86
2022/11/23 00:43:57;;;;;;;3.33;1.88;;;;;;;10.79;59.02;99166.75;688098;28;1158;-86
2022/11/23 00:44:17;;;;;;;3.67;2.00;;;;;;;10.74;58.66;99159.78;686599;28;1115;-85
2022/11/23 00:44:38;;;;;;;3.50;2.10;;;;;;;10.75;58.86;99161.53;695652;28;1884;-86
2022/11/23 00:45:00;;;;;;;2.92;2.00;;;;;;;10.71;59.00;99173.69;696174;28;1102;-85
2022/11/23 00:45:21;;;;;;;3.83;2.13;;;;;;;10.71;58.78;99157.16;693183;28;1338;-84
2022/11/23 00:45:41;;;;;;;4.80;2.30;;;;;;;10.74;59.16;99171.06;690678;28;1823;-85
2022/11/23 00:46:11;;;;;;;5.30;2.40;;;;;;;10.72;59.22;99165.00;690619;28;1053;-86
2022/11/23 00:46:32;;;;;;;5.10;2.40;;;;;;;10.71;59.20;99170.19;688342;28;1809;-86
2022/11/23 00:46:52;;;;;;;5.10;2.28;;;;;;;10.72;59.29;99166.72;692262;28;1514;-84
2022/11/23 00:47:13;;;;;;;5.17;2.13;;;;;;;10.78;59.07;99171.94;690402;28;1210;-84
2022/11/23 00:47:33;;;;;;;3.13;1.90;;;;;;;10.71;59.03;99164.97;687874;28;1223;-85
2022/11/23 00:47:54;;;;;;;2.73;1.90;;;;;;;10.80;59.00;99173.69;693371;28;1328;-86
2022/11/23 00:48:16;;;;;;;2.70;1.80;;;;;;;10.71;59.10;99164.97;690582;28;1209;-85
2022/11/23 00:48:37;;;;;;;3.97;1.80;;;;;;;10.83;59.15;99183.28;689753;28;1361;-85
2022/11/23 00:48:59;;;;;;;4.50;1.85;;;;;;;10.73;59.03;99158.00;687933;28;1404;-86
2022/11/23 00:49:21;;;;;;;4.88;2.22;;;;;;;10.78;59.02;99169.34;689254;28;1416;-85
2022/11/23 00:49:41;;;;;;;4.55;2.40;;;;;;;10.73;58.79;99158.00;683233;28;1283;-86
2022/11/23 00:50:02;;;;;;;4.90;2.47;;;;;;;10.87;58.84;99182.41;685062;28;1099;-86
2022/11/23 00:50:22;;;;;;;4.85;2.13;;;;;;;10.76;58.76;99174.53;685278;28;1158;-86
2022/11/23 00:50:44;;;;;;;5.50;2.30;;;;;;;10.78;58.97;99161.50;687912;28;1713;-86
2022/11/23 00:51:08;;;;;;;5.53;2.30;;;;;;;10.85;58.71;99163.25;685370;28;1131;-86
2022/11/23 00:51:32;;;;;;;5.18;2.10;;;;;;;10.90;58.55;99179.81;687969;28;953;-85
2022/11/23 00:51:52;;;;;;;4.22;1.92;;;;;;;10.84;58.40;99166.75;691260;28;1364;-87
2022/11/23 00:52:13;;;;;;;4.60;1.93;;;;;;;10.92;58.60;99175.44;690474;28;1213;-83
2022/11/23 00:52:34;;;;;;;4.43;1.90;;;;;;;10.87;58.41;99187.63;682136;29;1660;-85
2022/11/23 00:52:56;;;;;;;4.45;2.10;;;;;;;10.93;58.30;99161.53;685544;28;1413;-86
2022/11/23 00:53:17;;;;;;;3.17;2.03;;;;;;;10.88;58.54;99157.19;689030;28;1147;-84
2022/11/23 00:53:38;;;;;;;3.35;2.08;;;;;;;10.89;58.40;99153.69;692030;28;1565;-83
2022/11/23 00:54:00;;;;;;;4.93;2.10;;;;;;;10.91;58.35;99170.22;690693;28;970;-84
2022/11/23 00:54:20;;;;;;;5.30;2.30;;;;;;;10.85;58.40;99162.38;693232;28;1373;-83
2022/11/23 00:54:41;;;;;;;5.13;2.23;;;;;;;10.90;58.62;99169.38;689919;28;1543;-83
2022/11/23 00:55:02;;;;;;;4.10;2.15;;;;;;;10.87;58.69;99165.88;681432;28;1156;-83
2022/11/23 00:55:23;;;;;;;6.35;2.30;;;;;;;10.81;58.61;99164.13;685365;28;1206;-84
2022/11/23 00:55:53;;;;;;;7.57;2.30;;;;;;;10.87;58.41;99165.88;690067;28;1384;-86
2022/11/23 00:56:15;;;;;;;6.38;2.10;;;;;;;10.86;58.39;99185.03;692478;28;1132;-85
2022/11/23 00:56:36;;;;;;;5.53;2.10;;;;;;;10.71;58.66;99175.41;691378;28;1989;-86
2022/11/23 00:56:56;;;;;;;4.77;2.20;;;;;;;10.68;58.74;99171.94;685156;28;1477;-85
2022/11/23 00:57:17;;;;;;;4.45;2.00;;;;;;;10.70;58.84;99164.13;683616;28;1260;-85
2022/11/23 00:57:38;;;;;;;4.57;2.00;;;;;;;10.78;58.88;99166.72;687128;28;1269;-85
2022/11/23 00:57:59;;;;;;;5.05;1.80;;;;;;;10.82;58.87;99165.88;687966;28;1197;-85
2022/11/23 00:58:21;;;;;;;5.55;1.90;;;;;;;10.75;58.92;99164.97;690511;28;1344;-86
2022/11/23 00:58:41;;;;;;;5.38;1.90;;;;;;;10.83;58.61;99176.31;687870;28;1825;-86
2022/11/23 00:59:02;;;;;;;5.78;1.95;;;;;;;10.75;58.92;99157.16;685428;28;1212;-85
2022/11/23 00:59:23;;;;;;;6.35;2.08;;;;;;;10.76;58.90;99155.44;685356;28;1157;-86
2022/11/23 00:59:43;;;;;;;6.05;2.03;;;;;;;10.79;58.81;99169.34;687664;28;1409;-85
2022/11/23 01:00:05;;;;;;;5.17;2.00;;;;;;;10.78;58.89;99158.91;684635;28;1520;-85
2022/11/23 01:00:26;;;;;;;4.53;1.95;;;;;;;10.79;58.87;99163.25;684879;28;1308;-85
2022/11/23 01:00:47;;;;;;;4.80;2.00;;;;;;;10.83;58.92;99176.31;685825;28;1333;-85
2022/11/23 01:01:11;;;;;;;3.72;1.92;;;;;;;10.88;58.94;99176.31;686462;28;1971;-85
2022/11/23 01:01:35;;;;;;;3.83;2.00;;;;;;;10.78;58.93;99169.34;685808;28;1619;-86
2022/11/23 01:01:56;;;;;;;4.05;2.10;;;;;;;10.81;58.93;99161.50;687905;28;1387;-85
2022/11/23 01:02:29;;;;;;;4.63;2.00;;;;;;;10.82;58.94;99171.94;690507;28;1190;-85
2022/11/23 01:02:49;;;;;;;4.38;1.80;;;;;;;10.86;58.99;99171.97;685576;28;831;-85
2022/11/23 01:03:10;;;;;;;5.28;1.90;;;;;;;10.83;58.90;99172.84;687372;28;1226;-85
2022/11/23 01:03:31;;;;;;;5.37;2.00;;;;;;;10.79;58.87;99160.63;685190;28;1496;-85
2022/11/23 01:03:56;;;;;;;5.97;2.20;;;;;;;10.78;58.96;99156.28;687949;28;1284;-85
2022/11/23 01:04:16;;;;;;;3.40;2.00;;;;;;;10.81;59.03;99179.78;693000;28;1313;-84
2022/11/23 01:04:38;;;;;;;3.55;2.03;;;;;;;10.81;59.05;99171.94;687671;28;1618;-83
2022/11/23 01:04:58;;;;;;;4.70;2.30;;;;;;;10.76;58.93;99160.66;690333;28;1555;-82
2022/11/23 01:05:19;;;;;;;4.60;2.30;;;;;;;10.82;59.11;99173.72;693093;28;1282;-84
2022/11/23 01:05:40;;;;;;;4.05;2.08;;;;;;;10.74;59.27;99152.81;690457;28;1376;-85
2022/11/23 01:06:09;;;;;;;2.55;2.10;;;;;;;10.83;59.03;99183.28;688108;28;1465;-84
2022/11/23 01:06:33;;;;;;;3.30;2.40;;;;;;;10.79;58.93;99169.34;690211;28;1216;-85
2022/11/23 01:06:56;;;;;;;3.80;2.20;;;;;;;10.76;59.00;99156.28;690477;28;1487;-84
2022/11/23 01:07:16;;;;;;;4.43;2.22;;;;;;;10.81;59.14;99171.94;687765;28;1369;-83
2022/11/23 01:07:37;;;;;;;5.65;2.17;;;;;;;10.85;59.05;99178.03;687942;28;1115;-85
2022/11/23 01:07:57;;;;;;;5.17;2.20;;;;;;;10.80;58.92;99170.19;693262;28;1590;-85
2022/11/23 01:08:18;;;;;;;5.75;2.20;;;;;;;10.85;59.00;99178.91;696045;28;1216;-85
2022/11/23 01:08:40;;;;;;;4.30;2.08;;;;;;;10.86;59.12;99180.66;694563;28;1256;-85
2022/11/23 01:09:12;;;;;;;3.20;1.88;;;;;;;10.87;58.97;99179.78;690763;28;1286;-82
2022/11/23 01:09:32;;;;;;;2.80;1.80;;;;;;;10.81;58.96;99166.72;692593;28;1810;-84
2022/11/23 01:09:53;;;;;;;3.38;1.90;;;;;;;10.79;59.36;99169.34;689039;28;799;-84
2022/11/23 01:10:13;;;;;;;4.23;1.90;;;;;;;10.77;58.83;99171.09;689280;28;1138;-83
2022/11/23 01:10:34;;;;;;;5.30;2.08;;;;;;;10.78;59.28;99170.22;689627;28;1131;-84
2022/11/23 01:10:59;;;;;;;5.40;2.13;;;;;;;10.75;59.08;99162.38;688349;28;1179;-83
2022/11/23 01:11:21;;;;;;;4.93;2.10;;;;;;;10.83;59.41;99180.66;690214;28;1996;-82
2022/11/23 01:11:41;;;;;;;4.05;1.80;;;;;;;10.80;58.96;99171.09;690651;28;822;-83
2022/11/23 01:12:02;;;;;;;4.73;1.80;;;;;;;10.83;59.10;99171.09;687824;28;1345;-82
2022/11/23 01:12:23;;;;;;;4.80;1.90;;;;;;;10.75;59.20;99162.38;687684;28;1306;-82
2022/11/23 01:12:43;;;;;;;4.70;1.80;;;;;;;10.76;58.96;99173.69;687902;28;1181;-82
2022/11/23 01:13:04;;;;;;;4.17;1.73;;;;;;;10.76;59.02;99164.13;690491;28;1163;-82
2022/11/23 01:13:24;;;;;;;5.03;1.88;;;;;;;10.79;59.19;99179.78;687854;28;1253;-82
2022/11/23 01:13:45;;;;;;;5.22;2.10;;;;;;;10.83;58.95;99178.91;690519;28;1313;-83
2022/11/23 01:14:06;;;;;;;4.97;2.10;;;;;;;10.79;59.14;99161.53;687886;28;1133;-83
2022/11/23 01:14:27;;;;;;;3.15;1.90;;;;;;;10.79;58.97;99169.34;690623;28;1334;-86
2022/11/23 01:14:47;;;;;;;2.63;1.95;;;;;;;10.77;59.10;99170.22;693337;28;1274;-85
2022/11/23 01:15:08;;;;;;;3.40;2.00;;;;;;;10.92;58.86;99161.53;685089;28;1234;-84
2022/11/23 01:15:29;;;;;;;4.10;2.20;;;;;;;11.01;58.54;99163.28;691856;28;1183;-83
2022/11/23 01:15:50;;;;;;;4.93;2.10;;;;;;;11.13;58.28;99183.28;694390;28;759;-84
2022/11/23 01:16:16;;;;;;;5.32;2.28;;;;;;;11.04;58.23;99168.47;695978;28;1346;-85
2022/11/23 01:16:39;;;;;;;5.45;2.08;;;;;;;11.01;58.29;99163.28;689317;28;1895;-83
2022/11/23 01:16:59;;;;;;;4.40;2.15;;;;;;;10.91;58.33;99173.72;692587;28;1376;-84
2022/11/23 01:17:20;;;;;;;4.95;2.00;;;;;;;10.83;58.74;99162.41;690573;28;1282;-83
2022/11/23 01:17:40;;;;;;;6.00;2.10;;;;;;;10.91;58.78;99172.84;693398;28;1180;-83
2022/11/23 01:18:02;;;;;;;6.10;2.17;;;;;;;10.94;58.38;99168.50;687890;28;1156;-83
2022/11/23 01:18:25;;;;;;;4.40;2.10;;;;;;;10.95;58.53;99170.22;695525;28;1295;-83
2022/11/23 01:18:46;;;;;;;3.00;1.90;;;;;;;10.94;58.23;99173.69;695988;28;1821;-85
2022/11/23 01:19:10;;;;;;;2.88;1.80;;;;;;;11.01;58.42;99178.94;687606;28;1056;-85
2022/11/23 01:19:31;;;;;;;3.38;1.90;;;;;;;11.02;58.36;99180.69;682934;28;1457;-84
2022/11/23 01:19:51;;;;;;;3.25;1.70;;;;;;;11.02;58.42;99178.06;687295;28;1488;-83
2022/11/23 01:20:12;;;;;;;3.95;1.90;;;;;;;11.01;58.33;99184.16;687843;28;1299;-84
2022/11/23 01:20:34;;;;;;;4.10;1.88;;;;;;;10.99;58.26;99171.09;682419;28;1370;-85
2022/11/23 01:20:55;;;;;;;3.95;1.90;;;;;;;10.97;58.25;99165.91;687817;28;1491;-85
2022/11/23 01:21:15;;;;;;;3.70;1.75;;;;;;;11.02;58.27;99170.22;687474;28;1213;-86
2022/11/23 01:21:36;;;;;;;2.95;1.67;;;;;;;10.97;58.26;99168.50;687590;28;1821;-85
2022/11/23 01:21:57;;;;;;;4.05;2.10;;;;;;;11.03;57.88;99185.03;687867;28;1058;-85
2022/11/23 01:22:19;;;;;;;3.75;2.10;;;;;;;10.98;58.31;99164.13;690365;28;1237;-85
2022/11/23 01:22:39;;;;;;;4.45;2.40;;;;;;;10.94;58.39;99171.09;687826;28;1040;-85
2022/11/23 01:23:00;;;;;;;3.35;2.00;;;;;;;10.96;58.34;99166.75;685111;28;1292;-84
2022/11/23 01:23:20;;;;;;;3.43;2.10;;;;;;;11.01;58.25;99173.72;693145;28;1212;-83
2022/11/23 01:23:41;;;;;;;3.87;2.03;;;;;;;11.03;58.36;99175.47;693040;28;1803;-83
2022/11/23 01:24:06;;;;;;;4.15;2.03;;;;;;;11.01;58.20;99171.09;690508;28;1472;-85
2022/11/23 01:24:26;;;;;;;3.85;1.90;;;;;;;11.04;58.49;99179.81;690364;28;1554;-85
2022/11/23 01:24:48;;;;;;;4.10;1.80;;;;;;;11.00;58.48;99164.16;690506;28;1324;-82
2022/11/23 01:25:08;;;;;;;3.05;1.80;;;;;;;10.95;58.36;99162.38;690342;28;1425;-84
2022/11/23 01:25:32;;;;;;;3.22;1.90;;;;;;;10.99;58.18;99168.50;685063;28;1671;-84
2022/11/23 01:25:52;;;;;;;2.47;1.80;;;;;;;11.04;58.31;99176.31;690607;28;1025;-83
2022/11/23 01:26:13;;;;;;;2.73;1.90;;;;;;;11.05;58.20;99173.72;689407;28;1306;-83
2022/11/23 01:26:34;;;;;;;2.20;1.80;;;;;;;11.06;58.00;99178.06;687889;28;1650;-82
2022/11/23 01:26:54;;;;;;;3.60;2.00;;;;;;;11.07;58.15;99184.16;683124;28;1206;-83
2022/11/23 01:27:15;;;;;;;4.10;2.08;;;;;;;10.96;58.00;99166.75;684968;28;1195;-83
2022/11/23 01:27:36;;;;;;;5.30;2.10;;;;;;;11.04;58.42;99173.69;687576;28;1849;-82
2022/11/23 01:27:56;;;;;;;4.20;1.90;;;;;;;11.08;57.93;99178.06;690483;28;1146;-84
2022/11/23 01:28:17;;;;;;;4.00;1.70;;;;;;;11.04;57.97;99173.69;689006;28;1193;-83
2022/11/23 01:28:39;;;;;;;3.75;2.00;;;;;;;11.06;58.14;99182.44;685003;28;1521;-83
2022/11/23 01:29:00;;;;;;;4.47;2.20;;;;;;;11.13;58.06;99184.19;685205;28;1374;-86
2022/11/23 01:29:22;;;;;;;6.68;2.60;;;;;;;11.14;58.01;99185.03;682276;29;1159;-85
2022/11/23 01:29:43;;;;;;;6.90;2.60;;;;;;;11.15;57.99;99182.44;689613;28;1460;-83
2022/11/23 01:30:04;;;;;;;6.95;2.53;;;;;;;11.10;57.97;99168.50;690325;28;996;-84
2022/11/23 01:30:26;;;;;;;5.15;2.25;;;;;;;11.00;57.97;99161.53;698418;28;1382;-83
2022/11/23 01:31:13;;;;;;;3.33;1.87;;;;;;;11.16;57.80;99191.13;698597;28;1307;-82
2022/11/23 01:31:39;;;;;;;2.38;1.80;;;;;;;11.14;57.99;99180.69;691994;28;1316;-83
2022/11/23 01:32:00;;;;;;;2.88;1.70;;;;;;;11.04;57.73;99163.25;690374;28;1487;-83
2022/11/23 01:32:21;;;;;;;3.35;1.80;;;;;;;11.11;58.06;99178.06;687574;28;1526;-85
2022/11/23 01:32:41;;;;;;;4.05;1.80;;;;;;;11.09;58.10;99172.88;693141;28;1201;-83
2022/11/23 01:33:03;;;;;;;3.80;1.90;;;;;;;11.09;57.66;99171.97;693432;28;755;-84
2022/11/23 01:33:24;;;;;;;2.80;1.75;;;;;;;11.07;57.75;99182.41;695892;28;1259;-85
2022/11/23 01:33:45;;;;;;;2.17;1.80;;;;;;;11.10;57.73;99178.94;687400;28;1543;-84
2022/11/23 01:34:06;;;;;;;3.78;1.80;;;;;;;11.09;57.92;99183.31;687796;28;1392;-85
2022/11/23 01:34:27;;;;;;;4.35;1.90;;;;;;;11.06;58.02;99179.81;684905;28;1226;-85
2022/11/23 01:34:48;;;;;;;4.70;1.90;;;;;;;11.07;57.73;99178.94;684963;28;1953;-85
2022/11/23 01:35:08;;;;;;;3.40;1.80;;;;;;;11.05;58.02;99175.47;690526;28;1266;-84
2022/11/23 01:35:29;;;;;;;3.55;1.80;;;;;;;11.04;57.96;99171.97;693124;28;1185;-83
2022/11/23 01:35:50;;;;;;;4.13;1.90;;;;;;;11.08;57.80;99185.91;693021;28;1657;-83
2022/11/23 01:36:14;;;;;;;4.00;1.88;;;;;;;11.10;58.03;99194.59;689661;28;1466;-84
2022/11/23 01:36:34;;;;;;;3.72;1.73;;;;;;;11.04;57.83;99176.31;687401;28;1975;-83
2022/11/23 01:36:56;;;;;;;3.58;1.80;;;;;;;11.12;58.22;99187.63;690067;28;1545;-85
2022/11/23 01:37:16;;;;;;;3.60;1.83;;;;;;;11.09;58.06;99182.41;685053;28;1154;-86
2022/11/23 01:37:38;;;;;;;3.90;1.90;;;;;;;11.03;58.12;99175.47;693194;28;969;-86
2022/11/23 01:37:58;;;;;;;4.67;2.00;;;;;;;11.01;58.14;99174.59;687680;28;1210;-84
2022/11/23 01:38:19;;;;;;;5.28;2.10;;;;;;;11.03;58.04;99183.28;688901;28;1188;-83
2022/11/23 01:38:42;;;;;;;4.55;2.08;;;;;;;11.01;58.33;99190.25;692106;28;1803;-83
2022/11/23 01:39:03;;;;;;;3.92;1.90;;;;;;;11.05;58.11;99193.75;687750;28;1036;-83
2022/11/23 01:39:24;;;;;;;3.40;1.73;;;;;;;11.03;58.28;99188.50;687711;28;1184;-83
2022/11/23 01:39:45;;;;;;;3.05;1.50;;;;;;;11.02;57.92;99180.69;687670;28;795;-83
2022/11/23 01:40:06;;;;;;;2.85;1.50;;;;;;;10.95;58.12;99185.88;687419;28;1111;-83
2022/11/23 01:40:27;;;;;;;3.35;1.60;;;;;;;11.01;58.30;99184.16;685013;28;1183;-84
2022/11/23 01:40:48;;;;;;;4.40;1.60;;;;;;;10.97;58.04;99181.56;687782;28;1021;-85
2022/11/23 01:41:12;;;;;;;4.37;1.63;;;;;;;10.96;58.25;99171.97;693188;28;1143;-85
2022/11/23 01:41:36;;;;;;;4.60;1.80;;;;;;;11.05;58.22;99191.13;693195;28;976;-84
2022/11/23 01:42:06;;;;;;;3.40;1.85;;;;;;;10.95;58.30;99185.03;695680;28;1258;-85
2022/11/23 01:42:42;;;;;;;4.45;1.92;;;;;;;11.05;58.14;99191.13;690417;28;1197;-86
2022/11/23 01:43:09;;;;;;;6.35;2.10;;;;;;;10.97;58.34;99183.28;690587;28;976;-85
2022/11/23 01:43:30;;;;;;;4.72;1.95;;;;;;;10.98;58.10;99190.25;687454;28;1639;-85
2022/11/23 01:43:51;;;;;;;4.50;1.80;;;;;;;10.97;58.52;99178.94;690554;28;922;-85
2022/11/23 01:44:30;;;;;;;4.15;1.88;;;;;;;11.04;58.27;99203.31;690331;28;1345;-85
2022/11/23 01:44:51;;;;;;;3.30;1.90;;;;;;;11.02;58.19;99185.91;690753;28;979;-85
2022/11/23 01:45:38;;;;;;;3.70;1.95;;;;;;;11.02;58.25;99197.22;692521;28;1258;-85